Collison, IL (61831)

2:49 PM CDT on August 27, 2015 (GMT -0500)
K9ADL | | Change Station
CLOSE
Current Station
Personal Weather Station
Location: Oakwood, IL
Elevation: 725 ft
Nearby Weather Stations

Elev 725 ft 40.17 °N, 87.77 °W | Updated 0 second ago

Partly Cloudy
Partly Cloudy
81.3 °F
Feels Like 81 °F
N
4.6
Wind Variable Wind from NW
Gusts 0.0 mph

Today
High -- | Low -- °F
--% Chance of Precip.
Yesterday
High -- | Low -- °F
Precip. -- in
6:13 AM 7:31 PM
Waxing Gibbous, 94% visible
Pressure 30.13 in
Visibility 7.0 miles
Clouds Mostly Cloudy 3600 ft
Heat Index 81 °F
Dew Point 55 °F
Humidity 40%
Rainfall 0.00 in
Snow Depth Not available.
UV 4 out of 12
Pollen 9.70 out of 12
Air Quality Not available.
Flu Activity Not available.
METAR KDNV 271935Z AUTO 32003KT 7SM BKN036 24/16 A3013 RMK AO2 T02350156
Pressure 30.13 in
Visibility 7.0 miles
Clouds Mostly Cloudy 3600 ft
Heat Index 81 °F
Dew Point 55 °F
Humidity 40%
Rainfall 0.00 in
Snow Depth Not available.
UV 4 out of 12
Pollen 9.70 out of 12
Air Quality Not available.
Flu Activity Not available.
METAR KDNV 271935Z AUTO 32003KT 7SM BKN036 24/16 A3013 RMK AO2 T02350156

10-Day Weather Forecast

×

Almanac

Astronomy

Aug. 27, 2015 Rise Set
Actual Time
Civil Twilight
Nautical Twilight
Astronomical Twilight
Moon
Length of Visible Light
Length of Day
Tomorrow will be .
, % of the Moon is Illuminated

Today's Extremes

State Highs State Lows

Community

WunderPhotos

Upload Photos

1,850,200 photos uploaded!

WunderBlogs® & News

Nearby

Air Quality

  Air Quality AQ Index Pollutant
Not available.

Snow Depth

Station Depth Elevation

Earthquake Activity

City Distance Mag. Time & Date
Minimum magnitude displayed is 2.5.

Coastal Water Temperatures

Place Temperature

Stations

Nearby Weather Stations

Station Location Temp. Windchill Dew Point Humidity Wind Precip. Elev Updated Type